sensor_id;sensor_type;location;lat;lon;timestamp;pressure;altitude;pressure_sealevel;temperature;humidity
59757;BME280;45631;51.962;5.974;2023-04-21T00:01:58;101428.91;;;7.63;100.00
59757;BME280;45631;51.962;5.974;2023-04-21T00:04:26;101423.91;;;7.56;100.00
59757;BME280;45631;51.962;5.974;2023-04-21T00:06:55;101417.56;;;7.62;100.00
59757;BME280;45631;51.962;5.974;2023-04-21T00:09:24;101420.91;;;7.66;100.00
59757;BME280;45631;51.962;5.974;2023-04-21T00:11:52;101420.06;;;7.65;100.00
59757;BME280;45631;51.962;5.974;2023-04-21T00:14:20;101412.28;;;7.64;100.00
59757;BME280;45631;51.962;5.974;2023-04-21T00:16:49;101414.03;;;7.63;100.00
59757;BME280;45631;51.962;5.974;2023-04-21T00:19:18;101406.25;;;7.61;100.00
59757;BME280;45631;51.962;5.974;2023-04-21T00:21:46;101411.41;;;7.63;100.00
59757;BME280;45631;51.962;5.974;2023-04-21T00:24:14;101401.91;;;7.60;100.00
59757;BME280;45631;51.962;5.974;2023-04-21T00:26:42;101399.59;;;7.54;100.00
59757;BME280;45631;51.962;5.974;2023-04-21T00:29:10;101393.38;;;7.57;100.00
59757;BME280;45631;51.962;5.974;2023-04-21T00:31:39;101390.09;;;7.52;100.00
59757;BME280;45631;51.962;5.974;2023-04-21T00:34:09;101385.59;;;7.55;100.00
59757;BME280;45631;51.962;5.974;2023-04-21T00:36:37;101386.44;;;7.56;100.00
59757;BME280;45631;51.962;5.974;2023-04-21T00:39:05;101379.34;;;7.58;100.00
59757;BME280;45631;51.962;5.974;2023-04-21T00:41:33;101374.00;;;7.61;100.00
59757;BME280;45631;51.962;5.974;2023-04-21T00:44:03;101380.47;;;7.52;100.00
59757;BME280;45631;51.962;5.974;2023-04-21T00:46:32;101377.00;;;7.52;100.00
59757;BME280;45631;51.962;5.974;2023-04-21T00:49:03;101368.44;;;7.48;100.00
59757;BME280;45631;51.962;5.974;2023-04-21T00:51:34;101370.88;;;7.53;100.00
59757;BME280;45631;51.962;5.974;2023-04-21T00:54:04;101362.28;;;7.49;100.00
59757;BME280;45631;51.962;5.974;2023-04-21T00:56:34;101358.75;;;7.50;100.00
59757;BME280;45631;51.962;5.974;2023-04-21T00:59:02;101349.44;;;7.43;100.00
59757;BME280;45631;51.962;5.974;2023-04-21T01:01:31;101355.50;;;7.45;100.00
59757;BME280;45631;51.962;5.974;2023-04-21T01:04:00;101356.22;;;7.49;100.00
59757;BME280;45631;51.962;5.974;2023-04-21T01:06:30;101339.13;;;7.40;100.00
59757;BME280;45631;51.962;5.974;2023-04-21T01:09:01;101345.78;;;7.47;100.00
59757;BME280;45631;51.962;5.974;2023-04-21T01:11:30;101342.97;;;7.52;100.00
59757;BME280;45631;51.962;5.974;2023-04-21T01:13:58;101337.59;;;7.55;100.00
59757;BME280;45631;51.962;5.974;2023-04-21T01:16:29;101333.34;;;7.52;100.00
59757;BME280;45631;51.962;5.974;2023-04-21T01:19:00;101334.81;;;7.59;100.00
59757;BME280;45631;51.962;5.974;2023-04-21T01:21:37;101338.09;;;7.63;100.00
59757;BME280;45631;51.962;5.974;2023-04-21T01:24:06;101338.03;;;7.65;100.00
59757;BME280;45631;51.962;5.974;2023-04-21T01:26:34;101332.53;;;7.71;100.00
59757;BME280;45631;51.962;5.974;2023-04-21T01:29:02;101328.03;;;7.74;100.00
59757;BME280;45631;51.962;5.974;2023-04-21T01:31:30;101329.69;;;7.75;100.00
59757;BME280;45631;51.962;5.974;2023-04-21T01:34:02;101339.75;;;7.85;100.00
59757;BME280;45631;51.962;5.974;2023-04-21T01:36:30;101339.84;;;7.83;100.00
59757;BME280;45631;51.962;5.974;2023-04-21T01:39:00;101336.38;;;7.83;100.00
59757;BME280;45631;51.962;5.974;2023-04-21T01:41:28;101338.13;;;7.82;100.00
59757;BME280;45631;51.962;5.974;2023-04-21T01:43:59;101342.59;;;7.80;100.00
59757;BME280;45631;51.962;5.974;2023-04-21T01:46:27;101343.00;;;7.71;100.00
59757;BME280;45631;51.962;5.974;2023-04-21T01:48:55;101340.09;;;7.77;100.00
59757;BME280;45631;51.962;5.974;2023-04-21T01:51:23;101346.13;;;7.79;100.00
59757;BME280;45631;51.962;5.974;2023-04-21T01:53:52;101336.56;;;7.78;100.00
59757;BME280;45631;51.962;5.974;2023-04-21T01:56:22;101343.78;;;7.73;100.00
59757;BME280;45631;51.962;5.974;2023-04-21T01:58:50;101331.56;;;7.73;100.00
59757;BME280;45631;51.962;5.974;2023-04-21T02:01:19;101338.63;;;7.71;100.00
59757;BME280;45631;51.962;5.974;2023-04-21T02:03:47;101324.88;;;7.66;100.00
59757;BME280;45631;51.962;5.974;2023-04-21T02:06:15;101324.09;;;7.64;100.00
59757;BME280;45631;51.962;5.974;2023-04-21T02:08:43;101323.84;;;7.70;100.00
59757;BME280;45631;51.962;5.974;2023-04-21T02:11:11;101323.84;;;7.70;100.00
59757;BME280;45631;51.962;5.974;2023-04-21T02:13:41;101327.31;;;7.71;100.00
59757;BME280;45631;51.962;5.974;2023-04-21T02:16:12;101318.25;;;7.78;100.00
59757;BME280;45631;51.962;5.974;2023-04-21T02:18:40;101328.22;;;7.70;100.00
59757;BME280;45631;51.962;5.974;2023-04-21T02:21:10;101322.97;;;7.70;100.00
59757;BME280;45631;51.962;5.974;2023-04-21T02:23:38;101321.09;;;7.73;100.00
59757;BME280;45631;51.962;5.974;2023-04-21T02:26:06;101322.06;;;7.71;100.00
59757;BME280;45631;51.962;5.974;2023-04-21T02:28:37;101327.44;;;7.68;100.00
59757;BME280;45631;51.962;5.974;2023-04-21T02:31:07;101313.72;;;7.63;100.00
59757;BME280;45631;51.962;5.974;2023-04-21T02:33:35;101311.78;;;7.66;100.00
59757;BME280;45631;51.962;5.974;2023-04-21T02:36:04;101307.50;;;7.65;100.00
59757;BME280;45631;51.962;5.974;2023-04-21T02:38:33;101301.31;;;7.66;100.00
59757;BME280;45631;51.962;5.974;2023-04-21T02:41:01;101301.47;;;7.63;100.00
59757;BME280;45631;51.962;5.974;2023-04-21T02:43:29;101307.56;;;7.64;100.00
59757;BME280;45631;51.962;5.974;2023-04-21T02:45:58;101290.91;;;7.65;100.00
59757;BME280;45631;51.962;5.974;2023-04-21T02:48:28;101299.63;;;7.65;100.00
59757;BME280;45631;51.962;5.974;2023-04-21T02:50:56;101312.34;;;7.73;100.00
59757;BME280;45631;51.962;5.974;2023-04-21T02:53:27;101312.66;;;7.67;100.00
59757;BME280;45631;51.962;5.974;2023-04-21T02:55:58;101316.03;;;7.69;100.00
59757;BME280;45631;51.962;5.974;2023-04-21T02:58:28;101304.78;;;7.67;100.00
59757;BME280;45631;51.962;5.974;2023-04-21T03:00:56;101301.59;;;7.60;100.00
59757;BME280;45631;51.962;5.974;2023-04-21T03:03:24;101302.25;;;7.65;100.00
59757;BME280;45631;51.962;5.974;2023-04-21T03:05:56;101297.22;;;7.60;100.00
59757;BME280;45631;51.962;5.974;2023-04-21T03:08:24;101296.28;;;7.61;100.00
59757;BME280;45631;51.962;5.974;2023-04-21T03:10:53;101299.72;;;7.64;100.00
59757;BME280;45631;51.962;5.974;2023-04-21T03:13:23;101298.00;;;7.63;100.00
59757;BME280;45631;51.962;5.974;2023-04-21T03:15:51;101299.63;;;7.65;100.00
59757;BME280;45631;51.962;5.974;2023-04-21T03:18:19;101296.28;;;7.61;100.00
59757;BME280;45631;51.962;5.974;2023-04-21T03:20:48;101294.41;;;7.65;100.00
59757;BME280;45631;51.962;5.974;2023-04-21T03:23:17;101298.75;;;7.65;100.00
59757;BME280;45631;51.962;5.974;2023-04-21T03:25:45;101300.22;;;7.72;100.00
59757;BME280;45631;51.962;5.974;2023-04-21T03:28:13;101297.66;;;7.70;100.00
59757;BME280;45631;51.962;5.974;2023-04-21T03:30:42;101282.06;;;7.67;100.00
59757;BME280;45631;51.962;5.974;2023-04-21T03:33:10;101285.25;;;7.74;100.00
59757;BME280;45631;51.962;5.974;2023-04-21T03:35:38;101276.91;;;7.66;100.00
59757;BME280;45631;51.962;5.974;2023-04-21T03:38:07;101283.22;;;7.61;100.00
59757;BME280;45631;51.962;5.974;2023-04-21T03:40:38;101278.28;;;7.55;100.00
59757;BME280;45631;51.962;5.974;2023-04-21T03:43:06;101284.41;;;7.54;100.00
59757;BME280;45631;51.962;5.974;2023-04-21T03:45:35;101292.91;;;7.59;100.00
59757;BME280;45631;51.962;5.974;2023-04-21T03:48:04;101288.44;;;7.61;100.00
59757;BME280;45631;51.962;5.974;2023-04-21T03:50:35;101288.28;;;7.65;100.00
59757;BME280;45631;51.962;5.974;2023-04-21T03:53:03;101283.06;;;7.65;100.00
59757;BME280;45631;51.962;5.974;2023-04-21T03:55:31;101286.25;;;7.71;100.00
59757;BME280;45631;51.962;5.974;2023-04-21T03:58:00;101278.47;;;7.70;100.00
59757;BME280;45631;51.962;5.974;2023-04-21T04:00:28;101285.34;;;7.72;100.00
59757;BME280;45631;51.962;5.974;2023-04-21T04:02:59;101275.66;;;7.74;100.00
59757;BME280;45631;51.962;5.974;2023-04-21T04:05:27;101280.09;;;7.72;100.00
59757;BME280;45631;51.962;5.974;2023-04-21T04:07:56;101268.72;;;7.73;100.00
59757;BME280;45631;51.962;5.974;2023-04-21T04:10:24;101285.25;;;7.74;100.00
59757;BME280;45631;51.962;5.974;2023-04-21T04:12:55;101278.47;;;7.70;100.00
59757;BME280;45631;51.962;5.974;2023-04-21T04:15:24;101286.16;;;7.73;100.00
59757;BME280;45631;51.962;5.974;2023-04-21T04:17:52;101285.25;;;7.74;100.00
59757;BME280;45631;51.962;5.974;2023-04-21T04:20:21;101289.28;;;7.81;100.00
59757;BME280;45631;51.962;5.974;2023-04-21T04:22:49;101283.44;;;7.76;100.00
59757;BME280;45631;51.962;5.974;2023-04-21T04:25:17;101275.84;;;7.70;100.00
59757;BME280;45631;51.962;5.974;2023-04-21T04:27:45;101275.00;;;7.69;100.00
59757;BME280;45631;51.962;5.974;2023-04-21T04:30:15;101270.53;;;7.71;100.00
59757;BME280;45631;51.962;5.974;2023-04-21T04:32:44;101265.22;;;7.73;100.00
59757;BME280;45631;51.962;5.974;2023-04-21T04:35:13;101264.63;;;7.68;100.00
59757;BME280;45631;51.962;5.974;2023-04-21T04:37:41;101255.97;;;7.66;100.00
59757;BME280;45631;51.962;5.974;2023-04-21T04:40:11;101267.09;;;7.71;100.00
59757;BME280;45631;51.962;5.974;2023-04-21T04:42:40;101276.56;;;7.73;100.00
59757;BME280;45631;51.962;5.974;2023-04-21T04:45:08;101266.16;;;7.72;100.00
59757;BME280;45631;51.962;5.974;2023-04-21T04:47:37;101251.66;;;7.65;100.00
59757;BME280;45631;51.962;5.974;2023-04-21T04:50:07;101261.19;;;7.66;100.00
59757;BME280;45631;51.962;5.974;2023-04-21T04:52:35;101267.16;;;7.69;100.00
59757;BME280;45631;51.962;5.974;2023-04-21T04:55:04;101261.06;;;7.69;100.00
59757;BME280;45631;51.962;5.974;2023-04-21T04:57:35;101264.38;;;7.72;100.00
59757;BME280;45631;51.962;5.974;2023-04-21T05:00:04;101268.50;;;7.78;100.00
59757;BME280;45631;51.962;5.974;2023-04-21T05:02:34;101272.00;;;7.77;100.00
59757;BME280;45631;51.962;5.974;2023-04-21T05:05:07;101269.28;;;7.80;100.00
59757;BME280;45631;51.962;5.974;2023-04-21T05:07:35;101276.19;;;7.81;100.00
59757;BME280;45631;51.962;5.974;2023-04-21T05:10:04;101268.50;;;7.78;100.00
59757;BME280;45631;51.962;5.974;2023-04-21T05:12:32;101258.00;;;7.78;100.00
59757;BME280;45631;51.962;5.974;2023-04-21T05:15:00;101264.66;;;7.85;100.00
59757;BME280;45631;51.962;5.974;2023-04-21T05:17:28;101272.31;;;7.90;100.00
59757;BME280;45631;51.962;5.974;2023-04-21T05:19:57;101280.31;;;7.87;100.00
59757;BME280;45631;51.962;5.974;2023-04-21T05:22:26;101290.16;;;7.82;100.00
59757;BME280;45631;51.962;5.974;2023-04-21T05:24:54;101290.91;;;7.84;100.00
59757;BME280;45631;51.962;5.974;2023-04-21T05:27:22;101296.78;;;7.89;100.00
59757;BME280;45631;51.962;5.974;2023-04-21T05:29:51;101295.16;;;7.86;100.00
59757;BME280;45631;51.962;5.974;2023-04-21T05:32:20;101292.19;;;7.94;100.00
59757;BME280;45631;51.962;5.974;2023-04-21T05:34:48;101302.09;;;7.87;100.00
59757;BME280;45631;51.962;5.974;2023-04-21T05:37:17;101304.88;;;7.84;100.00
59757;BME280;45631;51.962;5.974;2023-04-21T05:39:46;101300.41;;;7.86;100.00
59757;BME280;45631;51.962;5.974;2023-04-21T05:42:14;101301.38;;;7.84;100.00
59757;BME280;45631;51.962;5.974;2023-04-21T05:44:46;101304.81;;;7.86;100.00
59757;BME280;45631;51.962;5.974;2023-04-21T05:47:14;101306.28;;;7.91;100.00
59757;BME280;45631;51.962;5.974;2023-04-21T05:49:42;101303.50;;;7.94;100.00
59757;BME280;45631;51.962;5.974;2023-04-21T05:52:16;101308.91;;;7.91;100.00
59757;BME280;45631;51.962;5.974;2023-04-21T05:54:45;101305.22;;;7.95;100.00
59757;BME280;45631;51.962;5.974;2023-04-21T05:57:13;101311.38;;;7.94;100.00
59757;BME280;45631;51.962;5.974;2023-04-21T05:59:43;101314.72;;;7.98;100.00
59757;BME280;45631;51.962;5.974;2023-04-21T06:02:11;101303.91;;;8.04;100.00
59757;BME280;45631;51.962;5.974;2023-04-21T06:04:39;101303.09;;;8.04;100.00
59757;BME280;45631;51.962;5.974;2023-04-21T06:07:09;101303.91;;;8.04;100.00
59757;BME280;45631;51.962;5.974;2023-04-21T06:09:39;101299.16;;;8.12;100.00
59757;BME280;45631;51.962;5.974;2023-04-21T06:12:09;101303.81;;;8.07;100.00
59757;BME280;45631;51.962;5.974;2023-04-21T06:14:37;101299.25;;;8.11;100.00
59757;BME280;45631;51.962;5.974;2023-04-21T06:17:08;101295.72;;;8.12;100.00
59757;BME280;45631;51.962;5.974;2023-04-21T06:19:36;101302.66;;;8.13;100.00
59757;BME280;45631;51.962;5.974;2023-04-21T06:22:07;101291.94;;;8.18;100.00
59757;BME280;45631;51.962;5.974;2023-04-21T06:24:35;101293.56;;;8.20;100.00
59757;BME280;45631;51.962;5.974;2023-04-21T06:27:10;101291.44;;;8.28;100.00
59757;BME280;45631;51.962;5.974;2023-04-21T06:29:41;101290.16;;;8.37;100.00
59757;BME280;45631;51.962;5.974;2023-04-21T06:32:10;101285.81;;;8.36;100.00
59757;BME280;45631;51.962;5.974;2023-04-21T06:34:38;101284.03;;;8.37;100.00
59757;BME280;45631;51.962;5.974;2023-04-21T06:37:06;101284.53;;;8.45;100.00
59757;BME280;45631;51.962;5.974;2023-04-21T06:39:35;101290.97;;;8.57;100.00
59757;BME280;45631;51.962;5.974;2023-04-21T06:42:03;101292.72;;;8.74;100.00
59757;BME280;45631;51.962;5.974;2023-04-21T06:44:32;101289.03;;;8.78;100.00
59757;BME280;45631;51.962;5.974;2023-04-21T06:47:00;101290.09;;;8.91;100.00
59757;BME280;45631;51.962;5.974;2023-04-21T06:49:28;101283.47;;;9.02;100.00
59757;BME280;45631;51.962;5.974;2023-04-21T06:51:56;101283.09;;;9.09;100.00
59757;BME280;45631;51.962;5.974;2023-04-21T06:54:25;101287.00;;;9.18;100.00
59757;BME280;45631;51.962;5.974;2023-04-21T06:56:53;101285.75;;;9.25;100.00
59757;BME280;45631;51.962;5.974;2023-04-21T06:59:21;101283.13;;;9.25;100.00
59757;BME280;45631;51.962;5.974;2023-04-21T07:01:50;101282.19;;;9.26;100.00
59757;BME280;45631;51.962;5.974;2023-04-21T07:04:18;101284.72;;;9.28;100.00
59757;BME280;45631;51.962;5.974;2023-04-21T07:06:47;101283.41;;;9.37;100.00
59757;BME280;45631;51.962;5.974;2023-04-21T07:09:15;101291.44;;;9.34;100.00
59757;BME280;45631;51.962;5.974;2023-04-21T07:11:46;101290.50;;;9.35;100.00
59757;BME280;45631;51.962;5.974;2023-04-21T07:14:14;101299.91;;;9.39;100.00
59757;BME280;45631;51.962;5.974;2023-04-21T07:16:42;101302.53;;;9.39;100.00
59757;BME280;45631;51.962;5.974;2023-04-21T07:19:12;101297.72;;;9.47;100.00
59757;BME280;45631;51.962;5.974;2023-04-21T07:21:40;101288.94;;;9.48;100.00
59757;BME280;45631;51.962;5.974;2023-04-21T07:24:08;101286.13;;;9.51;100.00
59757;BME280;45631;51.962;5.974;2023-04-21T07:26:38;101290.22;;;9.57;100.00
59757;BME280;45631;51.962;5.974;2023-04-21T07:29:09;101285.66;;;9.60;100.00
59757;BME280;45631;51.962;5.974;2023-04-21T07:31:37;101282.84;;;9.63;100.00
59757;BME280;45631;51.962;5.974;2023-04-21T07:34:08;101287.88;;;9.68;100.00
59757;BME280;45631;51.962;5.974;2023-04-21T07:36:37;101291.16;;;9.72;100.00
59757;BME280;45631;51.962;5.974;2023-04-21T07:39:05;101279.03;;;9.69;100.00
59757;BME280;45631;51.962;5.974;2023-04-21T07:41:33;101289.91;;;9.79;100.00
59757;BME280;45631;51.962;5.974;2023-04-21T07:44:01;101298.47;;;9.82;100.00
59757;BME280;45631;51.962;5.974;2023-04-21T07:46:30;101293.97;;;9.85;100.00
59757;BME280;45631;51.962;5.974;2023-04-21T07:48:58;101292.78;;;9.90;100.00
59757;BME280;45631;51.962;5.974;2023-04-21T07:51:29;101293.38;;;9.95;100.00
59757;BME280;45631;51.962;5.974;2023-04-21T07:53:59;101285.25;;;10.00;100.00
59757;BME280;45631;51.962;5.974;2023-04-21T07:56:27;101278.78;;;10.06;100.00
59757;BME280;45631;51.962;5.974;2023-04-21T07:58:56;101282.00;;;10.11;100.00
59757;BME280;45631;51.962;5.974;2023-04-21T08:01:24;101283.34;;;10.18;100.00
59757;BME280;45631;51.962;5.974;2023-04-21T08:03:52;101283.03;;;10.24;100.00
59757;BME280;45631;51.962;5.974;2023-04-21T08:06:20;101284.16;;;10.36;100.00
59757;BME280;45631;51.962;5.974;2023-04-21T08:08:51;101288.44;;;10.37;100.00
59757;BME280;45631;51.962;5.974;2023-04-21T08:11:21;101285.81;;;10.37;100.00
59757;BME280;45631;51.962;5.974;2023-04-21T08:13:49;101290.66;;;10.45;100.00
59757;BME280;45631;51.962;5.974;2023-04-21T08:16:18;101291.22;;;10.50;100.00
59757;BME280;45631;51.962;5.974;2023-04-21T08:18:46;101285.00;;;10.51;100.00
59757;BME280;45631;51.962;5.974;2023-04-21T08:21:14;101281.47;;;10.52;100.00
59757;BME280;45631;51.962;5.974;2023-04-21T08:23:42;101287.03;;;10.62;100.00
59757;BME280;45631;51.962;5.974;2023-04-21T08:26:10;101287.69;;;10.65;100.00
59757;BME280;45631;51.962;5.974;2023-04-21T08:28:40;101283.84;;;10.71;100.00
59757;BME280;45631;51.962;5.974;2023-04-21T08:31:08;101294.47;;;10.70;100.00
59757;BME280;45631;51.962;5.974;2023-04-21T08:33:36;101287.34;;;10.72;100.00
59757;BME280;45631;51.962;5.974;2023-04-21T08:36:18;101289.72;;;10.76;100.00
59757;BME280;45631;51.962;5.974;2023-04-21T08:38:55;101287.13;;;10.91;100.00
59757;BME280;45631;51.962;5.974;2023-04-21T08:41:24;101282.97;;;11.01;100.00
59757;BME280;45631;51.962;5.974;2023-04-21T08:43:54;101282.25;;;11.13;100.00
59757;BME280;45631;51.962;5.974;2023-04-21T08:46:22;101291.94;;;11.27;100.00
59757;BME280;45631;51.962;5.974;2023-04-21T08:48:51;101285.75;;;11.43;100.00
59757;BME280;45631;51.962;5.974;2023-04-21T08:51:22;101290.25;;;11.55;100.00
59757;BME280;45631;51.962;5.974;2023-04-21T08:53:51;101292.13;;;11.67;100.00
59757;BME280;45631;51.962;5.974;2023-04-21T08:56:23;101299.53;;;11.75;100.00
59757;BME280;45631;51.962;5.974;2023-04-21T08:58:55;101289.38;;;11.83;100.00
59757;BME280;45631;51.962;5.974;2023-04-21T09:01:23;101287.66;;;11.82;100.00
59757;BME280;45631;51.962;5.974;2023-04-21T09:03:51;101282.09;;;12.02;100.00
59757;BME280;45631;51.962;5.974;2023-04-21T09:06:19;101282.09;;;12.29;100.00
59757;BME280;45631;51.962;5.974;2023-04-21T09:08:54;101279.50;;;12.42;100.00
59757;BME280;45631;51.962;5.974;2023-04-21T09:11:22;101287.75;;;12.50;100.00
59757;BME280;45631;51.962;5.974;2023-04-21T09:13:57;101289.38;;;12.65;100.00
59757;BME280;45631;51.962;5.974;2023-04-21T09:16:29;101299.94;;;12.65;100.00
59757;BME280;45631;51.962;5.974;2023-04-21T09:18:59;101285.78;;;12.66;100.00
59757;BME280;45631;51.962;5.974;2023-04-21T09:21:27;101292.25;;;12.75;100.00
59757;BME280;45631;51.962;5.974;2023-04-21T09:24:03;101295.09;;;12.72;100.00
59757;BME280;45631;51.962;5.974;2023-04-21T09:26:32;101279.25;;;12.85;100.00
59757;BME280;45631;51.962;5.974;2023-04-21T09:29:05;101282.66;;;13.00;100.00
59757;BME280;45631;51.962;5.974;2023-04-21T09:31:34;101277.56;;;13.10;100.00
59757;BME280;45631;51.962;5.974;2023-04-21T09:34:02;101270.09;;;13.16;100.00
59757;BME280;45631;51.962;5.974;2023-04-21T09:36:44;101280.53;;;13.18;100.00
59757;BME280;45631;51.962;5.974;2023-04-21T09:39:12;101281.38;;;13.31;100.00
59757;BME280;45631;51.962;5.974;2023-04-21T09:42:01;101279.06;;;13.27;100.00
59757;BME280;45631;51.962;5.974;2023-04-21T09:44:30;101279.50;;;13.33;100.00
59757;BME280;45631;51.962;5.974;2023-04-21T09:47:16;101282.88;;;13.23;100.00
59757;BME280;45631;51.962;5.974;2023-04-21T09:49:46;101280.41;;;13.19;100.00
59757;BME280;45631;51.962;5.974;2023-04-21T09:52:18;101289.00;;;13.23;100.00
59757;BME280;45631;51.962;5.974;2023-04-21T09:54:49;101278.97;;;13.41;100.00
59757;BME280;45631;51.962;5.974;2023-04-21T09:57:20;101282.47;;;13.42;100.00
59757;BME280;45631;51.962;5.974;2023-04-21T09:59:59;101273.88;;;13.51;100.00
59757;BME280;45631;51.962;5.974;2023-04-21T10:02:30;101270.38;;;13.63;100.00
59757;BME280;45631;51.962;5.974;2023-04-21T10:05:03;101269.75;;;13.47;100.00
59757;BME280;45631;51.962;5.974;2023-04-21T10:07:32;101263.28;;;13.64;100.00
59757;BME280;45631;51.962;5.974;2023-04-21T10:10:06;101263.75;;;13.82;100.00
59757;BME280;45631;51.962;5.974;2023-04-21T10:12:35;101259.50;;;13.92;100.00
59757;BME280;45631;51.962;5.974;2023-04-21T10:15:05;101256.34;;;14.11;100.00
59757;BME280;45631;51.962;5.974;2023-04-21T10:18:10;101247.66;;;14.33;100.00
59757;BME280;45631;51.962;5.974;2023-04-21T10:20:50;101251.28;;;14.44;100.00
59757;BME280;45631;51.962;5.974;2023-04-21T10:23:35;101259.16;;;14.57;100.00
59757;BME280;45631;51.962;5.974;2023-04-21T10:26:08;101242.16;;;14.72;100.00
59757;BME280;45631;51.962;5.974;2023-04-21T10:28:47;101250.34;;;14.80;100.00
59757;BME280;45631;51.962;5.974;2023-04-21T10:31:18;101253.34;;;14.76;100.00
59757;BME280;45631;51.962;5.974;2023-04-21T10:34:18;101240.50;;;14.94;100.00
59757;BME280;45631;51.962;5.974;2023-04-21T10:36:50;101244.34;;;15.01;100.00
59757;BME280;45631;51.962;5.974;2023-04-21T10:39:35;101251.78;;;14.84;100.00
59757;BME280;45631;51.962;5.974;2023-04-21T10:42:21;101253.16;;;15.01;100.00
59757;BME280;45631;51.962;5.974;2023-04-21T10:44:52;101249.31;;;15.06;100.00
59757;BME280;45631;51.962;5.974;2023-04-21T10:47:29;101235.94;;;15.18;100.00
59757;BME280;45631;51.962;5.974;2023-04-21T10:49:58;101231.72;;;15.04;100.00
59757;BME280;45631;51.962;5.974;2023-04-21T10:52:30;101228.00;;;15.07;100.00
59757;BME280;45631;51.962;5.974;2023-04-21T10:55:07;101228.09;;;15.17;100.00
59757;BME280;45631;51.962;5.974;2023-04-21T10:57:41;101227.88;;;15.31;100.00
59757;BME280;45631;51.962;5.974;2023-04-21T11:00:14;101227.25;;;15.28;100.00
59757;BME280;45631;51.962;5.974;2023-04-21T11:02:52;101222.34;;;15.23;100.00
59757;BME280;45631;51.962;5.974;2023-04-21T11:05:29;101218.72;;;15.13;100.00
59757;BME280;45631;51.962;5.974;2023-04-21T11:08:04;101215.84;;;14.93;100.00
59757;BME280;45631;51.962;5.974;2023-04-21T11:10:57;101215.09;;;14.91;100.00
59757;BME280;45631;51.962;5.974;2023-04-21T11:13:26;101215.34;;;14.88;100.00
59757;BME280;45631;51.962;5.974;2023-04-21T11:16:02;101208.00;;;15.03;100.00
59757;BME280;45631;51.962;5.974;2023-04-21T11:18:37;101217.50;;;15.17;100.00
59757;BME280;45631;51.962;5.974;2023-04-21T11:21:11;101201.38;;;15.09;100.00
59757;BME280;45631;51.962;5.974;2023-04-21T11:23:47;101203.91;;;15.33;100.00
59757;BME280;45631;51.962;5.974;2023-04-21T11:26:15;101210.88;;;15.45;100.00
59757;BME280;45631;51.962;5.974;2023-04-21T11:28:47;101204.00;;;15.43;100.00
59757;BME280;45631;51.962;5.974;2023-04-21T11:31:16;101190.59;;;15.67;100.00
59757;BME280;45631;51.962;5.974;2023-04-21T11:33:46;101184.22;;;16.02;100.00
59757;BME280;45631;51.962;5.974;2023-04-21T11:36:14;101185.91;;;16.03;100.00
59757;BME280;45631;51.962;5.974;2023-04-21T11:38:42;101179.28;;;15.97;100.00
59757;BME280;45631;51.962;5.974;2023-04-21T11:41:19;101174.19;;;16.05;100.00
59757;BME280;45631;51.962;5.974;2023-04-21T11:43:48;101170.50;;;16.18;100.00
59757;BME280;45631;51.962;5.974;2023-04-21T11:46:17;101158.16;;;16.28;100.00
59757;BME280;45631;51.962;5.974;2023-04-21T11:48:58;101155.97;;;16.33;100.00
59757;BME280;45631;51.962;5.974;2023-04-21T11:51:31;101153.00;;;16.27;100.00
59757;BME280;45631;51.962;5.974;2023-04-21T11:54:00;101141.66;;;16.25;100.00
59757;BME280;45631;51.962;5.974;2023-04-21T11:56:28;101134.72;;;16.12;100.00
59757;BME280;45631;51.962;5.974;2023-04-21T11:58:57;101127.03;;;16.30;100.00
59757;BME280;45631;51.962;5.974;2023-04-21T12:01:28;101141.13;;;16.10;100.00
59757;BME280;45631;51.962;5.974;2023-04-21T12:03:57;101138.03;;;16.26;100.00
59757;BME280;45631;51.962;5.974;2023-04-21T12:06:26;101147.09;;;16.23;100.00
59757;BME280;45631;51.962;5.974;2023-04-21T12:08:57;101145.47;;;16.32;100.00
59757;BME280;45631;51.962;5.974;2023-04-21T12:11:27;101145.38;;;16.33;100.00
59757;BME280;45631;51.962;5.974;2023-04-21T12:13:55;101145.22;;;16.14;100.00
59757;BME280;45631;51.962;5.974;2023-04-21T12:16:24;101148.75;;;16.03;100.00
59757;BME280;45631;51.962;5.974;2023-04-21T12:18:55;101140.44;;;16.08;100.00
59757;BME280;45631;51.962;5.974;2023-04-21T12:21:28;101137.72;;;16.19;100.00
59757;BME280;45631;51.962;5.974;2023-04-21T12:23:56;101131.69;;;16.17;100.00
59757;BME280;45631;51.962;5.974;2023-04-21T12:26:24;101132.88;;;16.24;100.00
59757;BME280;45631;51.962;5.974;2023-04-21T12:28:53;101125.03;;;16.22;100.00
59757;BME280;45631;51.962;5.974;2023-04-21T12:31:21;101117.25;;;16.10;100.00
59757;BME280;45631;51.962;5.974;2023-04-21T12:33:50;101111.38;;;16.27;100.00
59757;BME280;45631;51.962;5.974;2023-04-21T12:36:18;101110.00;;;16.33;100.00
59757;BME280;45631;51.962;5.974;2023-04-21T12:38:47;101106.84;;;16.18;100.00
59757;BME280;45631;51.962;5.974;2023-04-21T12:41:15;101108.06;;;16.14;100.00
59757;BME280;45631;51.962;5.974;2023-04-21T12:43:43;101115.44;;;15.89;100.00
59757;BME280;45631;51.962;5.974;2023-04-21T12:46:12;101115.97;;;15.71;100.00
59757;BME280;45631;51.962;5.974;2023-04-21T12:48:41;101110.44;;;15.63;100.00
59757;BME280;45631;51.962;5.974;2023-04-21T12:51:09;101103.13;;;15.55;100.00
59757;BME280;45631;51.962;5.974;2023-04-21T12:53:37;101075.38;;;15.71;100.00
59757;BME280;45631;51.962;5.974;2023-04-21T12:56:07;101074.88;;;16.19;100.00
59757;BME280;45631;51.962;5.974;2023-04-21T12:58:35;101076.13;;;16.46;100.00
59757;BME280;45631;51.962;5.974;2023-04-21T13:01:04;101064.59;;;16.98;100.00